Time;durP1;ratioP1;P1;durP2;ratioP2;P2;SDS_P1;SDS_P2;PMS_P1;PMS_P2;Temp;Humidity;BMP_temperature;BMP_pressure;BME280_temperature;BME280_humidity;BME280_pressure;Samples;Min_cycle;Max_cycle;Signal;HPM_P1;HPM_P2
2024/01/26 00:01:45;;;;;;;22.80;11.70;;;;;;;5.03;100.00;101108.30;109039;1272;22023;-78
2024/01/26 00:04:26;;;;;;;25.50;11.40;;;;;;;5.02;100.00;101110.89;109120;1272;21994;-78
2024/01/26 00:07:01;;;;;;;26.50;10.30;;;;;;;5.01;100.00;101114.02;109357;1266;23129;-78
2024/01/26 00:09:35;;;;;;;25.50;9.20;;;;;;;5.00;100.00;101111.07;110470;1259;23053;-79
2024/01/26 00:12:10;;;;;;;19.80;8.60;;;;;;;5.01;100.00;101110.54;110641;1257;22232;-79
2024/01/26 00:14:44;;;;;;;19.70;8.50;;;;;;;5.02;100.00;101110.36;110858;1257;22094;-77
2024/01/26 00:17:19;;;;;;;25.10;9.20;;;;;;;4.99;100.00;101114.00;110955;1256;22437;-78
2024/01/26 00:19:51;;;;;;;26.90;10.00;;;;;;;4.97;100.00;101113.33;110113;1259;21984;-78
2024/01/26 00:22:24;;;;;;;23.70;8.00;;;;;;;4.94;100.00;101115.39;110176;1265;21979;-78
2024/01/26 00:25:00;;;;;;;19.40;7.00;;;;;;;4.90;100.00;101120.58;110052;1265;21982;-77
2024/01/26 00:27:34;;;;;;;21.50;7.20;;;;;;;4.88;100.00;101123.35;110369;1265;22257;-77
2024/01/26 00:30:10;;;;;;;27.80;8.60;;;;;;;4.85;100.00;101129.05;109752;1265;22007;-76
2024/01/26 00:32:42;;;;;;;22.10;6.70;;;;;;;4.81;100.00;101133.02;109758;1267;22530;-78
2024/01/26 00:35:15;;;;;;;17.20;5.70;;;;;;;4.81;100.00;101136.97;109480;1267;24007;-78
2024/01/26 00:37:46;;;;;;;14.70;5.60;;;;;;;4.82;100.00;101140.42;109955;1264;22440;-77
2024/01/26 00:40:22;;;;;;;21.10;6.90;;;;;;;4.82;100.00;101141.29;110187;1260;23595;-77
2024/01/26 00:42:59;;;;;;;14.50;6.00;;;;;;;4.81;100.00;101141.64;109793;1267;22101;-77
2024/01/26 00:45:41;;;;;;;17.70;7.10;;;;;;;4.82;100.00;101143.88;110008;1267;24409;-76
2024/01/26 00:48:21;;;;;;;17.00;6.10;;;;;;;4.82;100.00;101144.21;109768;1265;21987;-78
2024/01/26 00:50:56;;;;;;;20.30;7.10;;;;;;;4.82;100.00;101148.01;110022;1253;22036;-77
2024/01/26 00:53:40;;;;;;;16.00;6.90;;;;;;;4.82;100.00;101146.45;110051;1267;22186;-78
2024/01/26 00:56:16;;;;;;;20.60;7.30;;;;;;;4.81;100.00;101148.70;109808;1267;22634;-77
2024/01/26 00:58:58;;;;;;;13.70;5.40;;;;;;;4.81;100.00;101151.29;109921;1267;21976;-77
2024/01/26 01:01:42;;;;;;;20.80;7.40;;;;;;;4.79;100.00;101148.71;110349;1260;22476;-77
2024/01/26 01:04:16;;;;;;;14.40;5.60;;;;;;;4.77;100.00;101147.67;110611;1260;22023;-77
2024/01/26 01:06:52;;;;;;;15.80;5.40;;;;;;;4.74;100.00;101151.65;110297;1260;22726;-77
2024/01/26 01:09:25;;;;;;;20.30;6.90;;;;;;;4.72;100.00;101152.52;110299;1262;21973;-79
2024/01/26 01:12:00;;;;;;;19.40;5.90;;;;;;;4.72;100.00;101150.09;110111;1262;24353;-78
2024/01/26 01:14:37;;;;;;;21.30;7.70;;;;;;;4.73;100.00;101157.67;110408;1262;22017;-77
2024/01/26 01:17:12;;;;;;;19.00;7.80;;;;;;;4.73;100.00;101159.58;110396;1261;22118;-78
2024/01/26 01:19:50;;;;;;;15.80;7.00;;;;;;;4.73;100.00;101158.38;110472;1261;21967;-78
2024/01/26 01:22:22;;;;;;;19.40;6.90;;;;;;;4.75;100.00;101158.89;110670;1261;23021;-79
2024/01/26 01:24:59;;;;;;;16.80;6.30;;;;;;;4.75;100.00;101160.79;110168;1266;21975;-79
2024/01/26 01:27:35;;;;;;;16.20;6.40;;;;;;;4.77;100.00;101163.54;110280;1264;22116;-78
2024/01/26 01:30:13;;;;;;;21.70;8.40;;;;;;;4.79;100.00;101164.75;110456;1264;23596;-78
2024/01/26 01:32:49;;;;;;;18.80;7.20;;;;;;;4.78;100.00;101167.52;110157;1264;21981;-77
2024/01/26 01:35:22;;;;;;;20.10;7.20;;;;;;;4.78;100.00;101169.57;110321;1264;23790;-78
2024/01/26 01:37:52;;;;;;;16.70;7.10;;;;;;;4.77;100.00;101168.71;110424;1264;21981;-77
2024/01/26 01:40:30;;;;;;;19.70;7.50;;;;;;;4.78;100.00;101169.75;109674;1269;22020;-76
2024/01/26 01:43:05;;;;;;;12.30;6.10;;;;;;;4.74;100.00;101161.13;109955;1262;23970;-77
2024/01/26 01:45:40;;;;;;;18.20;6.60;;;;;;;4.82;100.00;101171.98;109722;1267;21986;-78
2024/01/26 01:48:23;;;;;;;19.30;7.10;;;;;;;4.83;100.00;101172.67;109690;1267;23044;-77
2024/01/26 01:50:55;;;;;;;17.00;6.50;;;;;;;4.83;100.00;101176.98;109700;1267;22837;-77
2024/01/26 01:53:35;;;;;;;18.60;6.60;;;;;;;4.84;100.00;101180.43;109328;1272;23726;-78
2024/01/26 01:56:11;;;;;;;14.80;6.30;;;;;;;4.84;100.00;101182.52;108989;1276;23914;-77
2024/01/26 01:58:55;;;;;;;19.10;7.30;;;;;;;4.85;100.00;101184.57;108827;1276;23715;-78
2024/01/26 02:01:31;;;;;;;13.20;6.00;;;;;;;4.83;100.00;101182.50;108791;1267;23143;-77
2024/01/26 02:04:12;;;;;;;17.50;7.60;;;;;;;4.82;100.00;101180.77;109008;1272;21986;-77
2024/01/26 02:07:00;;;;;;;20.90;7.90;;;;;;;4.84;100.00;101183.19;109455;1268;23691;-77
2024/01/26 02:09:40;;;;;;;19.00;9.40;;;;;;;4.85;100.00;101184.58;109325;1273;22074;-78
2024/01/26 02:12:25;;;;;;;19.30;8.10;;;;;;;4.86;100.00;101181.46;109303;1270;21978;-77
2024/01/26 02:15:08;;;;;;;25.50;8.90;;;;;;;4.85;100.00;101180.42;109989;1264;21970;-77
2024/01/26 02:17:47;;;;;;;18.30;7.80;;;;;;;4.86;100.00;101179.74;110306;1264;21970;-78
2024/01/26 02:20:23;;;;;;;20.10;7.70;;;;;;;4.84;100.00;101176.64;109997;1264;21979;-77
2024/01/26 02:23:30;;;;;;;18.20;7.30;;;;;;;4.83;100.00;101177.85;109666;1270;22049;-77
2024/01/26 02:26:08;;;;;;;24.00;8.10;;;;;;;4.82;100.00;101177.33;109465;1270;22003;-77
2024/01/26 02:28:41;;;;;;;22.20;7.10;;;;;;;4.82;100.00;101172.85;109989;1265;22045;-76
2024/01/26 02:31:14;;;;;;;23.70;7.90;;;;;;;4.82;100.00;101175.60;109573;1269;21986;-77
2024/01/26 02:34:00;;;;;;;24.20;8.70;;;;;;;4.81;100.00;101175.77;109878;1269;22286;-76
2024/01/26 02:36:41;;;;;;;24.30;7.90;;;;;;;4.79;100.00;101175.27;109663;1269;23158;-76
2024/01/26 02:39:19;;;;;;;24.40;7.60;;;;;;;4.78;100.00;101176.13;109437;1271;22780;-76
2024/01/26 02:41:49;;;;;;;18.50;8.40;;;;;;;4.79;100.00;101174.23;109352;1270;21989;-77
2024/01/26 02:44:27;;;;;;;22.00;7.40;;;;;;;4.79;100.00;101176.13;109641;1270;22406;-77
2024/01/26 02:47:02;;;;;;;18.30;7.10;;;;;;;4.81;100.00;101179.75;109619;1270;23116;-78
2024/01/26 02:49:40;;;;;;;17.30;8.10;;;;;;;4.82;100.00;101181.98;109677;1265;21976;-78
2024/01/26 02:52:15;;;;;;;19.70;7.70;;;;;;;4.81;100.00;101184.40;109718;1270;23037;-78
2024/01/26 02:54:48;;;;;;;17.70;7.90;;;;;;;4.82;100.00;101189.06;109021;1275;21997;-76
2024/01/26 02:57:23;;;;;;;18.20;6.70;;;;;;;4.82;100.00;101191.99;109091;1272;22021;-77
2024/01/26 02:59:53;;;;;;;21.70;8.50;;;;;;;4.82;100.00;101191.98;109435;1269;21984;-78
2024/01/26 03:02:29;;;;;;;18.80;7.60;;;;;;;4.81;100.00;101186.98;109382;1269;23039;-77
2024/01/26 03:05:08;;;;;;;18.50;7.70;;;;;;;4.81;100.00;101188.02;109667;1269;24139;-77
2024/01/26 03:07:43;;;;;;;20.10;6.90;;;;;;;4.80;100.00;101184.92;109676;1268;21977;-77
2024/01/26 03:10:18;;;;;;;20.90;7.80;;;;;;;4.77;100.00;101181.65;109926;1262;23802;-77
2024/01/26 03:12:54;;;;;;;20.90;8.10;;;;;;;4.75;100.00;101188.20;110341;1257;22779;-77
2024/01/26 03:15:25;;;;;;;17.80;7.90;;;;;;;4.73;100.00;101188.36;110790;1257;23352;-78
2024/01/26 03:18:08;;;;;;;21.30;8.60;;;;;;;4.70;100.00;101187.68;110398;1263;22107;-77
2024/01/26 03:20:48;;;;;;;19.20;7.00;;;;;;;4.58;100.00;101170.96;110416;1263;21969;-77
2024/01/26 03:23:20;;;;;;;19.20;7.10;;;;;;;4.66;100.00;101188.72;110118;1263;22273;-78
2024/01/26 03:26:04;;;;;;;16.00;7.30;;;;;;;4.66;100.00;101187.50;110269;1263;21975;-77
2024/01/26 03:28:44;;;;;;;16.70;7.90;;;;;;;4.65;100.00;101192.33;109987;1267;23243;-76
2024/01/26 03:31:18;;;;;;;17.60;7.20;;;;;;;4.65;100.00;101195.43;110075;1267;21974;-77
2024/01/26 03:33:54;;;;;;;17.80;7.10;;;;;;;4.66;100.00;101195.79;109375;1271;21994;-77
2024/01/26 03:36:38;;;;;;;22.20;8.40;;;;;;;4.66;100.00;101194.58;109265;1273;21984;-77
2024/01/26 03:39:11;;;;;;;17.90;7.70;;;;;;;4.65;100.00;101194.23;109291;1273;22055;-78
2024/01/26 03:41:52;;;;;;;22.30;8.50;;;;;;;4.65;100.00;101195.09;109286;1268;23045;-77
2024/01/26 03:44:22;;;;;;;22.60;9.00;;;;;;;4.66;100.00;101197.86;109727;1268;23025;-79
2024/01/26 03:46:57;;;;;;;19.60;9.60;;;;;;;4.67;100.00;101199.08;110027;1263;21967;-79
2024/01/26 03:49:35;;;;;;;26.30;11.00;;;;;;;4.68;100.00;101198.55;110430;1263;22040;-76
2024/01/26 03:52:08;;;;;;;22.60;8.70;;;;;;;4.69;100.00;101198.04;110474;1257;23710;-79
2024/01/26 03:54:43;;;;;;;23.40;11.00;;;;;;;4.70;100.00;101198.02;110802;1257;21961;-78
2024/01/26 03:57:17;;;;;;;25.70;11.80;;;;;;;4.71;100.00;101198.20;110682;1257;24334;-77
2024/01/26 03:59:48;;;;;;;25.20;12.80;;;;;;;4.71;100.00;101202.68;110789;1257;22827;-77
2024/01/26 04:02:22;;;;;;;28.80;13.90;;;;;;;4.72;100.00;101209.06;110583;1262;22173;-79
2024/01/26 04:04:53;;;;;;;34.00;16.30;;;;;;;4.72;100.00;101215.27;109742;1267;21976;-78
2024/01/26 04:07:26;;;;;;;47.70;29.10;;;;;;;4.74;100.00;101220.27;109494;1270;21977;-77
2024/01/26 04:10:02;;;;;;;24.90;14.20;;;;;;;4.76;100.00;101217.00;108990;1275;22115;-78
2024/01/26 04:12:33;;;;;;;32.60;14.80;;;;;;;4.80;100.00;101220.10;108978;1275;21992;-77
2024/01/26 04:15:11;;;;;;;31.40;14.10;;;;;;;4.81;100.00;101219.24;108727;1281;21996;-77
2024/01/26 04:17:43;;;;;;;53.30;37.80;;;;;;;4.82;100.00;101222.86;108529;1281;22170;-77
2024/01/26 04:20:17;;;;;;;33.60;20.70;;;;;;;4.84;100.00;101221.65;108772;1278;21964;-77
2024/01/26 04:22:51;;;;;;;22.40;12.80;;;;;;;4.85;100.00;101217.86;109004;1272;23117;-78
2024/01/26 04:25:38;;;;;;;24.90;11.60;;;;;;;4.88;100.00;101213.04;109283;1272;23715;-78
2024/01/26 04:28:18;;;;;;;28.80;11.80;;;;;;;4.86;100.00;101210.09;109641;1267;22098;-77
2024/01/26 04:30:50;;;;;;;25.00;12.20;;;;;;;4.82;100.00;101207.70;110257;1254;23027;-76
2024/01/26 04:33:23;;;;;;;22.40;11.00;;;;;;;4.83;100.00;101212.52;110275;1257;447948;-80
2024/01/26 04:36:03;;;;;;;25.90;12.80;;;;;;;4.83;100.00;101215.10;110922;1257;21967;-80
2024/01/26 04:38:59;;;;;;;;;;;;;;;;;;;;;
2024/01/26 04:41:53;;;;;;;27.50;11.50;;;;;;;4.79;100.00;101224.42;111022;1253;23041;-78
2024/01/26 04:45:00;;;;;;;24.10;10.70;;;;;;;4.79;100.00;101234.25;111239;1257;22973;-81
2024/01/26 04:47:45;;;;;;;24.20;10.50;;;;;;;4.79;100.00;101232.00;110812;1257;22157;-81
2024/01/26 04:50:16;;;;;;;22.90;9.40;;;;;;;4.81;100.00;101232.34;110360;1263;22183;-80
2024/01/26 04:52:52;;;;;;;23.80;10.90;;;;;;;4.83;100.00;101236.31;110254;1263;22101;-77
2024/01/26 04:55:35;;;;;;;24.80;10.30;;;;;;;4.85;100.00;101234.08;110055;1262;22256;-78
2024/01/26 04:58:12;;;;;;;22.70;9.40;;;;;;;4.89;100.00;101233.90;109732;1268;21974;-78
2024/01/26 05:00:46;;;;;;;22.40;9.70;;;;;;;4.90;100.00;101235.27;109776;1268;22124;-77
2024/01/26 05:03:26;;;;;;;26.70;10.40;;;;;;;4.92;100.00;101230.79;109401;1272;21980;-77
2024/01/26 05:06:06;;;;;;;24.50;9.50;;;;;;;4.88;100.00;101213.38;109363;1272;21982;-78
2024/01/26 05:08:42;;;;;;;27.10;9.80;;;;;;;4.97;100.00;101227.17;108973;1274;21987;-77
2024/01/26 05:11:24;;;;;;;19.80;8.00;;;;;;;4.96;100.00;101224.41;109114;1273;22135;-77
2024/01/26 05:13:58;;;;;;;18.10;9.10;;;;;;;4.98;100.00;101224.75;109607;1268;21982;-77
2024/01/26 05:16:38;;;;;;;20.10;8.40;;;;;;;4.99;100.00;101223.89;109703;1268;21984;-77
2024/01/26 05:19:09;;;;;;;27.40;9.30;;;;;;;4.98;100.00;101223.70;109738;1268;23663;-77
2024/01/26 05:21:43;;;;;;;17.00;7.50;;;;;;;4.96;100.00;101224.40;109914;1263;23624;-79
2024/01/26 05:24:22;;;;;;;25.80;9.70;;;;;;;4.94;100.00;101231.30;110064;1265;22449;-77
2024/01/26 05:26:57;;;;;;;25.20;10.10;;;;;;;4.89;100.00;101232.86;110216;1260;21967;-77
2024/01/26 05:29:36;;;;;;;22.80;9.10;;;;;;;4.86;100.00;101232.00;110734;1260;21970;-76
2024/01/26 05:32:10;;;;;;;16.20;8.40;;;;;;;4.85;100.00;101234.60;110629;1260;23706;-77
2024/01/26 05:34:45;;;;;;;19.90;9.40;;;;;;;4.86;100.00;101235.11;110577;1260;23801;-77
2024/01/26 05:37:15;;;;;;;18.40;8.80;;;;;;;4.87;100.00;101235.11;110490;1260;22015;-76
2024/01/26 05:39:48;;;;;;;23.30;9.20;;;;;;;4.87;100.00;101235.45;110713;1260;21980;-78
2024/01/26 05:42:22;;;;;;;19.40;10.00;;;;;;;4.87;100.00;101232.69;110773;1257;23713;-77
2024/01/26 05:44:56;;;;;;;21.50;9.00;;;;;;;4.86;100.00;101229.92;110635;1261;23015;-78
2024/01/26 05:47:31;;;;;;;24.40;10.60;;;;;;;4.85;100.00;101230.80;110518;1261;22248;-76
2024/01/26 05:50:05;;;;;;;;;;;;;;;4.85;100.00;101229.59;109876;1268;21974;-76
2024/01/26 05:52:54;;;;;;;22.30;10.00;;;;;;;4.76;100.00;101226.31;110028;1268;22262;-77
2024/01/26 05:55:28;;;;;;;26.40;13.90;;;;;;;4.73;100.00;101230.27;109724;1268;22022;-77
2024/01/26 05:58:04;;;;;;;27.40;15.90;;;;;;;4.73;100.00;101232.70;109778;1268;23032;-77
2024/01/26 06:00:40;;;;;;;25.30;15.60;;;;;;;4.75;100.00;101229.25;110106;1266;21954;-77
2024/01/26 06:03:16;;;;;;;27.60;13.20;;;;;;;4.77;100.00;101223.89;109849;1264;23605;-77
2024/01/26 06:05:48;;;;;;;32.30;13.60;;;;;;;4.81;100.00;101220.10;110089;1264;21978;-77
2024/01/26 06:11:20;;;;;;;31.20;13.50;;;;;;;4.89;100.00;101218.03;110201;1263;21984;-78
2024/01/26 06:14:01;;;;;;;34.50;15.80;;;;;;;4.91;100.00;101217.16;110137;1263;22436;-78
2024/01/26 06:16:37;;;;;;;38.50;20.10;;;;;;;4.93;100.00;101216.13;109620;1262;22248;-77
2024/01/26 06:19:12;;;;;;;56.90;23.80;;;;;;;4.94;100.00;101222.17;109915;1268;21977;-78
2024/01/26 06:21:43;;;;;;;118.20;59.70;;;;;;;4.95;100.00;101224.06;109699;1268;22186;-79
2024/01/26 06:24:18;;;;;;;77.90;44.40;;;;;;;4.95;100.00;101222.67;109895;1268;21977;-78
2024/01/26 06:27:01;;;;;;;45.10;25.20;;;;;;;4.95;100.00;101223.54;110191;1263;22006;-78
2024/01/26 06:29:42;;;;;;;32.10;18.80;;;;;;;4.94;100.00;101225.27;110292;1263;23004;-77
2024/01/26 06:32:12;;;;;;;28.90;18.40;;;;;;;4.93;100.00;101227.17;109929;1268;22002;-78
2024/01/26 06:34:52;;;;;;;26.90;14.30;;;;;;;4.94;100.00;101230.96;109983;1264;23069;-78
2024/01/26 06:37:29;;;;;;;30.10;13.60;;;;;;;4.95;100.00;101233.55;110404;1264;22282;-78
2024/01/26 06:40:17;;;;;;;21.40;10.40;;;;;;;4.95;100.00;101231.83;109451;1268;21943;-79
2024/01/26 06:42:52;;;;;;;22.40;11.00;;;;;;;4.95;100.00;101234.75;109744;1268;21981;-77
2024/01/26 06:45:28;;;;;;;24.10;11.00;;;;;;;4.95;100.00;101240.79;109495;1271;23694;-77
2024/01/26 06:48:17;;;;;;;31.90;14.30;;;;;;;4.94;100.00;101242.70;108967;1275;21993;-77
2024/01/26 06:51:01;;;;;;;25.70;15.10;;;;;;;4.92;100.00;101240.80;109183;1273;22945;-78
2024/01/26 06:53:48;;;;;;;30.60;17.40;;;;;;;4.93;100.00;101238.04;109275;1261;22992;-78
2024/01/26 06:56:31;;;;;;;31.80;18.50;;;;;;;4.93;100.00;101235.79;109012;1268;21983;-77
2024/01/26 06:59:16;;;;;;;29.60;19.50;;;;;;;4.93;100.00;101242.17;109575;1262;21992;-78
2024/01/26 07:01:57;;;;;;;44.90;25.60;;;;;;;4.93;100.00;101238.90;109685;1269;23036;-78
2024/01/26 07:04:44;;;;;;;40.50;22.50;;;;;;;4.91;100.00;101241.83;110079;1264;22724;-78
2024/01/26 07:07:20;;;;;;;33.40;22.50;;;;;;;4.88;100.00;101238.90;110384;1254;23033;-77
2024/01/26 07:09:57;;;;;;;40.60;25.90;;;;;;;4.92;100.00;101245.45;110640;1260;23612;-78
2024/01/26 07:12:48;;;;;;;37.60;27.40;;;;;;;4.91;100.00;101244.08;110799;1250;21973;-78
2024/01/26 07:15:21;;;;;;;51.50;33.10;;;;;;;4.94;100.00;101250.96;110893;1257;23710;-78
2024/01/26 07:18:09;;;;;;;41.10;29.10;;;;;;;4.94;100.00;101247.52;110994;1257;23026;-77
2024/01/26 07:20:50;;;;;;;36.10;23.90;;;;;;;4.94;100.00;101246.83;110697;1257;22016;-79
2024/01/26 07:23:32;;;;;;;35.40;17.90;;;;;;;4.94;100.00;101243.55;110933;1257;21953;-78
2024/01/26 07:26:05;;;;;;;34.20;17.30;;;;;;;4.97;100.00;101249.08;110594;1260;24368;-78
2024/01/26 07:28:44;;;;;;;34.60;18.50;;;;;;;4.98;100.00;101249.24;110492;1260;21973;-76
2024/01/26 07:31:23;;;;;;;31.20;13.20;;;;;;;5.00;100.00;101244.92;110613;1260;21978;-76
2024/01/26 07:34:01;;;;;;;25.60;15.50;;;;;;;5.03;100.00;101241.30;110440;1260;21981;-77
2024/01/26 07:36:36;;;;;;;30.50;16.70;;;;;;;5.06;100.00;101240.44;110594;1260;21971;-78
2024/01/26 07:39:22;;;;;;;;;;;;;;;5.08;100.00;101240.96;110841;1257;22606;-80
2024/01/26 07:42:11;;;;;;;50.40;27.50;;;;;;;4.99;100.00;101240.80;110715;1260;21955;-79
2024/01/26 07:45:09;;;;;;;38.30;21.10;;;;;;;4.94;100.00;101242.34;110881;1260;22017;-80
2024/01/26 07:48:15;;;;;;;58.70;28.10;;;;;;;4.91;100.00;101239.41;110007;1267;23078;-80
2024/01/26 07:50:56;;;;;;;49.70;26.70;;;;;;;4.94;100.00;101238.38;110205;1266;21985;-79
2024/01/26 07:53:33;;;;;;;42.30;20.70;;;;;;;4.98;100.00;101240.95;110318;1267;21985;-79
2024/01/26 07:56:10;;;;;;;47.20;22.60;;;;;;;5.02;100.00;101240.10;109665;1267;22188;-80
2024/01/26 07:58:53;;;;;;;42.20;20.80;;;;;;;5.06;100.00;101239.41;110546;1263;21992;-78
2024/01/26 08:01:27;;;;;;;52.70;21.50;;;;;;;5.03;100.00;101227.67;110602;1263;23043;-78
2024/01/26 08:04:33;;;;;;;43.60;22.40;;;;;;;5.11;100.00;101234.22;110124;1268;22768;-79
2024/01/26 08:07:15;;;;;;;45.10;21.20;;;;;;;5.16;100.00;101233.70;110284;1250;23029;-78
2024/01/26 08:09:52;;;;;;;39.70;19.50;;;;;;;5.21;100.00;101230.77;110517;1263;23708;-78
2024/01/26 08:12:29;;;;;;;40.20;19.10;;;;;;;5.26;100.00;101230.75;111385;1263;21945;-76
2024/01/26 08:15:46;;;;;;;33.50;17.10;;;;;;;5.28;100.00;101227.48;110677;1263;21979;-79
2024/01/26 08:18:35;;;;;;;42.00;19.20;;;;;;;5.28;100.00;101217.64;110394;1264;23710;-78
2024/01/26 08:21:10;;;;;;;45.90;24.30;;;;;;;5.32;100.00;101213.31;110437;1263;21972;-78
2024/01/26 08:23:56;;;;;;;51.30;25.80;;;;;;;5.39;100.00;101208.64;110587;1261;23053;-80
2024/01/26 08:26:35;;;;;;;62.60;32.30;;;;;;;5.45;100.00;101205.52;109866;1254;21975;-78
2024/01/26 08:29:16;;;;;;;55.80;31.20;;;;;;;5.50;100.00;101194.27;109294;1272;23961;-79
2024/01/26 08:31:53;;;;;;;46.60;26.90;;;;;;;5.52;100.00;101196.51;109269;1272;22472;-78
2024/01/26 08:34:27;;;;;;;51.00;28.90;;;;;;;5.57;100.00;101198.91;109695;1271;22032;-78
2024/01/26 08:37:03;;;;;;;40.10;23.20;;;;;;;5.62;100.00;101200.45;109388;1272;21946;-78
2024/01/26 08:39:44;;;;;;;40.20;22.00;;;;;;;5.70;100.00;101195.75;109306;1272;23000;-80
2024/01/26 08:42:25;;;;;;;47.90;22.50;;;;;;;5.77;100.00;101195.19;109280;1269;23152;-80
2024/01/26 08:45:05;;;;;;;37.40;19.50;;;;;;;5.88;100.00;101196.52;109454;1269;22998;-81
2024/01/26 08:47:38;;;;;;;44.90;22.40;;;;;;;5.99;100.00;101197.38;110390;1264;21998;-78
2024/01/26 08:50:09;;;;;;;40.70;19.30;;;;;;;6.10;100.00;101197.48;110087;1264;22397;-79
2024/01/26 08:52:40;;;;;;;45.30;18.00;;;;;;;6.19;100.00;101192.25;110439;1263;21962;-78
2024/01/26 08:55:19;;;;;;;36.50;18.10;;;;;;;6.26;100.00;101192.55;109786;1268;21981;-79
2024/01/26 08:57:57;;;;;;;35.60;18.60;;;;;;;6.32;100.00;101192.52;109676;1268;21989;-79
2024/01/26 09:00:35;;;;;;;34.40;17.60;;;;;;;6.31;100.00;101188.71;109748;1268;22005;-81
2024/01/26 09:03:11;;;;;;;31.20;17.40;;;;;;;6.28;100.00;101190.27;110012;1268;22209;-80
2024/01/26 09:05:52;;;;;;;27.10;13.30;;;;;;;6.28;100.00;101191.48;109503;1271;21968;-80
2024/01/26 09:08:37;;;;;;;30.40;13.40;;;;;;;6.28;100.00;101185.10;109327;1275;22065;-87
2024/01/26 09:11:10;;;;;;;30.30;13.30;;;;;;;6.28;100.00;101189.42;109157;1276;22003;-85
2024/01/26 09:13:41;;;;;;;25.00;12.10;;;;;;;6.31;100.00;101193.71;108991;1276;21988;-83
2024/01/26 09:16:15;;;;;;;26.70;13.40;;;;;;;6.34;100.00;101194.05;108894;1276;22036;-79
2024/01/26 09:18:50;;;;;;;22.60;11.50;;;;;;;6.35;100.00;101193.69;109031;1276;23276;-79
2024/01/26 09:21:26;;;;;;;32.80;11.40;;;;;;;6.39;100.00;101196.77;109354;1274;22019;-79
2024/01/26 09:23:59;;;;;;;21.40;11.60;;;;;;;6.41;100.00;101192.96;109006;1273;22004;-79
2024/01/26 09:26:36;;;;;;;;;;;;;;;6.44;100.00;101191.21;109501;1268;23716;-79
2024/01/26 09:29:19;;;;;;;24.70;11.40;;;;;;;6.38;100.00;101188.99;110456;1264;21973;-80
2024/01/26 09:32:00;;;;;;;16.40;8.40;;;;;;;6.42;100.00;101185.86;109618;1270;21982;-79
2024/01/26 09:34:32;;;;;;;22.60;9.20;;;;;;;6.50;100.00;101185.47;109897;1270;22001;-79
2024/01/26 09:37:04;;;;;;;16.60;8.70;;;;;;;6.55;100.00;101180.75;109462;1274;21979;-80
2024/01/26 09:39:39;;;;;;;25.50;12.70;;;;;;;6.59;100.00;101174.84;109405;1274;22546;-82
2024/01/26 09:42:14;;;;;;;22.30;12.00;;;;;;;6.62;100.00;101167.89;109129;1274;21988;-80
2024/01/26 09:45:01;;;;;;;19.20;9.20;;;;;;;6.62;100.00;101165.47;109230;1274;23048;-81
2024/01/26 09:47:43;;;;;;;29.50;14.00;;;;;;;6.61;100.00;101164.77;109187;1274;22022;-81
2024/01/26 09:50:15;;;;;;;18.10;11.80;;;;;;;6.63;100.00;101161.67;109653;1268;21998;-79
2024/01/26 09:52:50;;;;;;;22.80;11.00;;;;;;;6.64;100.00;101159.92;109971;1268;23046;-79
2024/01/26 09:55:21;;;;;;;18.90;10.50;;;;;;;6.65;100.00;101154.38;110029;1263;21970;-80
2024/01/26 09:57:53;;;;;;;19.90;9.90;;;;;;;6.67;100.00;101151.08;110229;1263;22150;-79
2024/01/26 10:00:29;;;;;;;13.50;6.80;;;;;;;6.72;100.00;101145.34;109780;1267;22668;-80
2024/01/26 10:02:59;;;;;;;20.00;11.00;;;;;;;6.81;100.00;101138.33;109954;1267;21981;-77
2024/01/26 10:05:35;;;;;;;30.80;11.20;;;;;;;6.93;100.00;101135.09;110266;1267;22029;-79
2024/01/26 10:08:11;;;;;;;32.00;11.10;;;;;;;7.02;100.00;101130.15;110310;1267;23750;-79
2024/01/26 10:10:53;;;;;;;31.90;13.10;;;;;;;7.14;100.00;101125.69;110268;1267;23622;-81
2024/01/26 10:13:28;;;;;;;28.50;11.30;;;;;;;7.30;100.00;101119.63;110338;1267;22848;-80
2024/01/26 10:16:13;;;;;;;15.90;7.50;;;;;;;7.47;100.00;101118.89;110702;1262;21964;-81
2024/01/26 10:18:48;;;;;;;21.70;7.00;;;;;;;7.66;100.00;101117.79;110720;1258;21971;-79
2024/01/26 10:21:20;;;;;;;15.30;7.40;;;;;;;7.78;100.00;101112.59;111029;1257;22423;-81
2024/01/26 10:24:01;;;;;;;19.40;7.00;;;;;;;7.83;100.00;101105.40;111232;1257;21983;-79
2024/01/26 10:26:56;;;;;;;16.90;6.50;;;;;;;7.86;100.00;101093.42;111215;1257;23741;-81
2024/01/26 10:29:37;;;;;;;21.90;9.40;;;;;;;7.92;100.00;101084.48;111087;1257;21987;-79
2024/01/26 10:32:35;;;;;;;15.00;8.20;;;;;;;8.06;100.00;101073.87;110586;1262;22124;-78
2024/01/26 10:35:37;;;;;;;19.30;8.70;;;;;;;8.17;100.00;101067.11;110632;1262;21951;-80
2024/01/26 10:38:19;;;;;;;18.70;7.80;;;;;;;8.22;100.00;101056.11;110381;1262;23617;-79
2024/01/26 10:41:04;;;;;;;24.30;8.80;;;;;;;8.21;100.00;101050.75;109896;1269;21990;-79
2024/01/26 10:43:52;;;;;;;;;;;;;;;8.10;100.00;101036.54;109691;1269;21969;-79
2024/01/26 10:46:46;;;;;;;25.90;12.00;;;;;;;8.08;100.00;101051.48;109667;1268;21994;-79
2024/01/26 10:49:22;;;;;;;22.40;11.10;;;;;;;8.07;100.00;101044.73;109733;1268;23036;-79
2024/01/26 10:52:18;;;;;;;30.60;12.30;;;;;;;8.09;100.00;101044.88;110377;1263;22003;-80
2024/01/26 10:55:08;;;;;;;28.80;9.80;;;;;;;8.03;100.00;101039.08;110829;1263;21995;-79
2024/01/26 10:58:09;;;;;;;32.50;11.70;;;;;;;7.98;100.00;101034.83;110278;1263;21988;-82
2024/01/26 11:00:45;;;;;;;25.10;12.90;;;;;;;7.99;100.00;101031.34;110998;1257;21967;-80
2024/01/26 11:03:22;;;;;;;29.20;14.70;;;;;;;8.04;100.00;101026.92;111372;1257;21966;-80
2024/01/26 11:06:39;;;;;;;26.90;17.30;;;;;;;8.04;100.00;101013.75;111370;1257;22178;-79
2024/01/26 11:09:26;;;;;;;23.70;9.90;;;;;;;8.01;100.00;101017.27;110622;1263;21973;-81
2024/01/26 11:12:02;;;;;;;37.90;15.10;;;;;;;7.99;100.00;101014.70;110517;1263;22208;-79
2024/01/26 11:14:43;;;;;;;24.90;10.10;;;;;;;8.01;100.00;101011.38;110355;1254;21997;-80
2024/01/26 11:17:54;;;;;;;20.10;10.50;;;;;;;8.06;100.00;101009.21;110149;1267;23602;-84
2024/01/26 11:20:51;;;;;;;27.60;12.00;;;;;;;8.06;100.00;100996.55;110126;1267;22055;-79
2024/01/26 11:23:44;;;;;;;24.30;12.60;;;;;;;8.01;100.00;100985.71;110113;1267;23703;-79
2024/01/26 11:27:01;;;;;;;37.50;15.00;;;;;;;8.04;100.00;100986.54;110129;1262;22024;-79
2024/01/26 11:29:48;;;;;;;36.40;19.50;;;;;;;8.12;100.00;100984.67;110286;1267;22056;-79
2024/01/26 11:32:37;;;;;;;22.80;11.10;;;;;;;8.13;100.00;100983.08;110159;1264;24474;-82
2024/01/26 11:35:16;;;;;;;28.50;13.20;;;;;;;8.00;100.00;100964.77;110074;1264;23611;-79
2024/01/26 11:37:52;;;;;;;29.70;13.40;;;;;;;8.13;100.00;100976.52;110075;1264;22910;-80
2024/01/26 11:40:37;;;;;;;31.70;14.00;;;;;;;8.18;100.00;100971.05;109903;1262;22067;-80
2024/01/26 11:43:47;;;;;;;23.50;12.70;;;;;;;8.21;100.00;100966.82;110133;1268;22066;-79
2024/01/26 11:46:46;;;;;;;33.90;13.80;;;;;;;8.20;100.00;100960.95;109482;1272;22044;-79
2024/01/26 11:49:35;;;;;;;29.20;16.80;;;;;;;8.11;100.00;100952.62;109360;1272;23603;-78
2024/01/26 11:52:10;;;;;;;31.60;13.80;;;;;;;8.06;100.00;100946.64;109344;1272;22088;-78
2024/01/26 11:54:47;;;;;;;16.40;8.80;;;;;;;8.03;100.00;100949.80;109486;1272;23128;-78
2024/01/26 11:58:01;;;;;;;22.10;10.70;;;;;;;7.96;100.00;100947.16;109617;1272;24345;-80
2024/01/26 12:00:40;;;;;;;26.30;13.00;;;;;;;7.88;100.00;100934.29;109468;1272;23048;-78
2024/01/26 12:03:30;;;;;;;26.10;12.90;;;;;;;7.82;100.00;100922.79;109272;1276;23813;-81
2024/01/26 12:06:04;;;;;;;20.80;10.30;;;;;;;7.72;100.00;100920.52;109756;1263;22025;-77